Burney, CA

12:33 AM PDT on October 01, 2014 (GMT -0700)
Mount Shasta | Change Station
CLOSE
Current Station
Airport
Location: Mount Shasta,
Elevation: 3533 ft
Nearby Weather Stations

Elev 3533 ft 41.32 °N, 122.32 °W | Updated 37 minutes ago

Clear
Clear
47 °F
Feels Like 47 °F
N
5
Wind Variable Wind from Variable

Today
High -- | Low -- °F
--% Chance of Precip.
Yesterday
High -- | Low -- °F
Precip. -- in
7:03 AM 6:48 PM
Waxing Crescent, 45% visible
Pressure 30.15 in
Visibility 10.0 miles
Clouds Clear
Dew Point 39 °F
Humidity 74%
Rainfall 0.00 in
Snow Depth Not available.
UV 0 out of 12
Pollen 5.80 out of 12
Air Quality Not available.
Flu Activity Not available.
METAR KMHS 010656Z AUTO VRB04KT 10SM CLR 08/04 A3013 RMK AO2 SLP210 T00830039

More Conditions Fewer Conditions

Pressure 30.15 in
Visibility 10.0 miles
Clouds Clear
Dew Point 39 °F
Humidity 74%
Rainfall 0.00 in
Snow Depth Not available.
UV 0 out of 12
Pollen 5.80 out of 12
Air Quality Not available.
Flu Activity Not available.
METAR KMHS 010656Z AUTO VRB04KT 10SM CLR 08/04 A3013 RMK AO2 SLP210 T00830039

More Conditions Fewer Conditions

10-Day Weather Forecast

Almanac

Astronomy

Oct. 01, 2014 Rise Set
Actual Time 7:03 AM PDT 6:48 PM PDT
Civil Twilight 6:35 AM PDT 7:15 PM PDT
Nautical Twilight 6:04 AM PDT 7:47 PM PDT
Astronomical Twilight 5:31 AM PDT 8:19 PM PDT
Moon 2:10 PM PDT No Moon Set
Length of Visible Light 12h 39m
Length of Day
11h 45m
Tomorrow will be 2m 41s shorter.
Waxing Crescent, 45% of the Moon is Illuminated
Today
Waxing Crescent
Oct 1
First Quarter
Oct 8
Full
Oct 15
Last Quarter
Oct 23
New

Today's Extremes

State Highs State Lows

Community

WunderPhotos

Upload Photos

1,757,898 photos uploaded!

Nearby

Snow Depth

Station Depth Elevation
Rubicon #2 1 in 7500 ft
Heavenly Valley 0 in 8850 ft
Summit Meadow 1 in 9122 ft
Tahoe City Cross 0 in 6750 ft
Hagan's Meadow 0 in 8000 ft

Earthquake Activity

City Distance Mag. Time & Date
No recent earthquake activity has been reported nearby.
Minimum magnitude displayed is 2.5.

Coastal Water Temperatures

Place Temperature
No Stations Reporting

Nearby Weather Stations